sensor_id;sensor_type;location;lat;lon;timestamp;P1;durP1;ratioP1;P2;durP2;ratioP2
37973;SDS011;23796;51.458;7.000;2023-02-23T00:00:24;33.15;;;29.58;;
37973;SDS011;23796;51.458;7.000;2023-02-23T00:02:57;35.42;;;31.23;;
37973;SDS011;23796;51.458;7.000;2023-02-23T00:05:25;33.42;;;30.00;;
37973;SDS011;23796;51.458;7.000;2023-02-23T00:07:52;31.33;;;28.10;;
37973;SDS011;23796;51.458;7.000;2023-02-23T00:10:21;33.47;;;29.92;;
37973;SDS011;23796;51.458;7.000;2023-02-23T00:12:54;34.03;;;29.77;;
37973;SDS011;23796;51.458;7.000;2023-02-23T00:15:23;31.80;;;28.42;;
37973;SDS011;23796;51.458;7.000;2023-02-23T00:17:51;31.95;;;27.98;;
37973;SDS011;23796;51.458;7.000;2023-02-23T00:20:21;30.60;;;26.90;;
37973;SDS011;23796;51.458;7.000;2023-02-23T00:22:52;29.42;;;26.45;;
37973;SDS011;23796;51.458;7.000;2023-02-23T00:25:22;31.88;;;28.48;;
37973;SDS011;23796;51.458;7.000;2023-02-23T00:27:49;30.77;;;27.58;;
37973;SDS011;23796;51.458;7.000;2023-02-23T00:30:16;29.77;;;26.60;;
37973;SDS011;23796;51.458;7.000;2023-02-23T00:32:45;31.67;;;28.35;;
37973;SDS011;23796;51.458;7.000;2023-02-23T00:35:11;33.95;;;30.30;;
37973;SDS011;23796;51.458;7.000;2023-02-23T00:37:47;35.25;;;30.40;;
37973;SDS011;23796;51.458;7.000;2023-02-23T00:40:16;35.53;;;31.75;;
37973;SDS011;23796;51.458;7.000;2023-02-23T00:42:47;36.88;;;30.70;;
37973;SDS011;23796;51.458;7.000;2023-02-23T00:45:14;35.03;;;31.20;;
37973;SDS011;23796;51.458;7.000;2023-02-23T00:47:40;35.40;;;31.45;;
37973;SDS011;23796;51.458;7.000;2023-02-23T00:50:12;35.42;;;31.73;;
37973;SDS011;23796;51.458;7.000;2023-02-23T00:52:40;34.35;;;30.67;;
37973;SDS011;23796;51.458;7.000;2023-02-23T00:55:07;34.92;;;31.23;;
37973;SDS011;23796;51.458;7.000;2023-02-23T00:57:37;34.38;;;30.75;;
37973;SDS011;23796;51.458;7.000;2023-02-23T01:00:06;34.22;;;30.60;;
37973;SDS011;23796;51.458;7.000;2023-02-23T01:02:45;36.60;;;32.63;;
37973;SDS011;23796;51.458;7.000;2023-02-23T01:05:14;38.90;;;33.75;;
37973;SDS011;23796;51.458;7.000;2023-02-23T01:07:40;38.40;;;33.67;;
37973;SDS011;23796;51.458;7.000;2023-02-23T01:10:10;40.92;;;35.15;;
37973;SDS011;23796;51.458;7.000;2023-02-23T01:12:48;39.75;;;33.95;;
37973;SDS011;23796;51.458;7.000;2023-02-23T01:15:15;38.13;;;33.08;;
37973;SDS011;23796;51.458;7.000;2023-02-23T01:17:42;41.22;;;34.25;;
37973;SDS011;23796;51.458;7.000;2023-02-23T01:20:11;42.85;;;35.05;;
37973;SDS011;23796;51.458;7.000;2023-02-23T01:22:45;44.38;;;36.38;;
37973;SDS011;23796;51.458;7.000;2023-02-23T01:25:15;45.55;;;37.95;;
37973;SDS011;23796;51.458;7.000;2023-02-23T01:27:42;41.65;;;35.13;;
37973;SDS011;23796;51.458;7.000;2023-02-23T01:30:13;45.25;;;37.78;;
37973;SDS011;23796;51.458;7.000;2023-02-23T01:32:42;43.53;;;36.28;;
37973;SDS011;23796;51.458;7.000;2023-02-23T01:35:10;46.05;;;36.92;;
37973;SDS011;23796;51.458;7.000;2023-02-23T01:37:40;44.92;;;37.45;;
37973;SDS011;23796;51.458;7.000;2023-02-23T01:40:11;46.83;;;38.53;;
37973;SDS011;23796;51.458;7.000;2023-02-23T01:42:53;53.25;;;40.90;;
37973;SDS011;23796;51.458;7.000;2023-02-23T01:45:39;53.88;;;40.50;;
37973;SDS011;23796;51.458;7.000;2023-02-23T01:48:06;49.08;;;39.95;;
37973;SDS011;23796;51.458;7.000;2023-02-23T01:53:32;41.83;;;35.85;;
37973;SDS011;23796;51.458;7.000;2023-02-23T01:56:12;41.83;;;35.65;;
37973;SDS011;23796;51.458;7.000;2023-02-23T01:58:41;43.30;;;36.70;;
37973;SDS011;23796;51.458;7.000;2023-02-23T02:01:15;41.90;;;35.35;;
37973;SDS011;23796;51.458;7.000;2023-02-23T02:03:59;39.40;;;34.90;;
37973;SDS011;23796;51.458;7.000;2023-02-23T02:06:34;40.13;;;34.78;;
37973;SDS011;23796;51.458;7.000;2023-02-23T02:09:04;40.58;;;35.55;;
37973;SDS011;23796;51.458;7.000;2023-02-23T02:11:34;41.35;;;35.47;;
37973;SDS011;23796;51.458;7.000;2023-02-23T02:14:05;39.72;;;34.38;;
37973;SDS011;23796;51.458;7.000;2023-02-23T02:16:44;40.58;;;35.13;;
37973;SDS011;23796;51.458;7.000;2023-02-23T02:32:58;46.88;;;37.28;;
37973;SDS011;23796;51.458;7.000;2023-02-23T02:38:30;46.38;;;37.22;;
37973;SDS011;23796;51.458;7.000;2023-02-23T02:41:11;48.15;;;37.33;;
37973;SDS011;23796;51.458;7.000;2023-02-23T02:46:27;47.40;;;38.08;;
37973;SDS011;23796;51.458;7.000;2023-02-23T02:51:50;51.35;;;38.20;;
37973;SDS011;23796;51.458;7.000;2023-02-23T02:54:45;42.33;;;35.97;;
37973;SDS011;23796;51.458;7.000;2023-02-23T02:57:21;42.05;;;35.05;;
37973;SDS011;23796;51.458;7.000;2023-02-23T02:59:53;48.55;;;37.90;;
37973;SDS011;23796;51.458;7.000;2023-02-23T03:02:38;49.72;;;37.78;;
37973;SDS011;23796;51.458;7.000;2023-02-23T03:05:27;41.63;;;35.50;;
37973;SDS011;23796;51.458;7.000;2023-02-23T03:11:09;39.33;;;35.03;;
37973;SDS011;23796;51.458;7.000;2023-02-23T03:20:09;47.25;;;35.17;;
37973;SDS011;23796;51.458;7.000;2023-02-23T03:31:45;46.78;;;36.63;;
37973;SDS011;23796;51.458;7.000;2023-02-23T03:34:46;46.78;;;37.45;;
37973;SDS011;23796;51.458;7.000;2023-02-23T03:38:04;52.88;;;38.10;;
37973;SDS011;23796;51.458;7.000;2023-02-23T03:40:54;45.15;;;36.72;;
37973;SDS011;23796;51.458;7.000;2023-02-23T03:43:54;44.33;;;35.63;;
37973;SDS011;23796;51.458;7.000;2023-02-23T03:46:42;47.50;;;37.40;;
37973;SDS011;23796;51.458;7.000;2023-02-23T03:49:28;49.15;;;37.25;;
37973;SDS011;23796;51.458;7.000;2023-02-23T03:52:21;46.50;;;36.17;;
37973;SDS011;23796;51.458;7.000;2023-02-23T03:55:23;49.70;;;37.60;;
37973;SDS011;23796;51.458;7.000;2023-02-23T03:58:13;48.83;;;37.83;;
37973;SDS011;23796;51.458;7.000;2023-02-23T04:01:03;48.60;;;36.83;;
37973;SDS011;23796;51.458;7.000;2023-02-23T04:03:50;47.53;;;37.95;;
37973;SDS011;23796;51.458;7.000;2023-02-23T04:06:37;52.45;;;38.03;;
37973;SDS011;23796;51.458;7.000;2023-02-23T04:09:24;51.85;;;39.40;;
37973;SDS011;23796;51.458;7.000;2023-02-23T04:17:39;55.55;;;40.33;;
37973;SDS011;23796;51.458;7.000;2023-02-23T04:20:06;62.47;;;42.00;;
37973;SDS011;23796;51.458;7.000;2023-02-23T04:22:36;61.42;;;40.67;;
37973;SDS011;23796;51.458;7.000;2023-02-23T04:25:02;55.45;;;40.92;;
37973;SDS011;23796;51.458;7.000;2023-02-23T04:27:30;56.72;;;40.20;;
37973;SDS011;23796;51.458;7.000;2023-02-23T04:29:56;59.83;;;41.20;;
37973;SDS011;23796;51.458;7.000;2023-02-23T04:32:24;64.38;;;43.08;;
37973;SDS011;23796;51.458;7.000;2023-02-23T04:34:52;59.00;;;42.13;;
37973;SDS011;23796;51.458;7.000;2023-02-23T04:37:17;58.58;;;41.03;;
37973;SDS011;23796;51.458;7.000;2023-02-23T04:39:45;55.35;;;41.97;;
37973;SDS011;23796;51.458;7.000;2023-02-23T04:42:13;62.10;;;42.65;;
37973;SDS011;23796;51.458;7.000;2023-02-23T04:44:41;62.35;;;42.20;;
37973;SDS011;23796;51.458;7.000;2023-02-23T04:47:07;59.03;;;42.80;;
37973;SDS011;23796;51.458;7.000;2023-02-23T04:49:33;58.65;;;41.50;;
37973;SDS011;23796;51.458;7.000;2023-02-23T04:52:01;62.22;;;42.00;;
37973;SDS011;23796;51.458;7.000;2023-02-23T04:54:27;65.05;;;44.88;;
37973;SDS011;23796;51.458;7.000;2023-02-23T04:56:55;60.38;;;43.10;;
37973;SDS011;23796;51.458;7.000;2023-02-23T04:59:21;64.63;;;44.83;;
37973;SDS011;23796;51.458;7.000;2023-02-23T05:01:46;66.45;;;43.67;;
37973;SDS011;23796;51.458;7.000;2023-02-23T05:04:17;65.13;;;44.38;;
37973;SDS011;23796;51.458;7.000;2023-02-23T05:06:42;59.00;;;41.90;;
37973;SDS011;23796;51.458;7.000;2023-02-23T05:09:08;65.72;;;44.40;;
37973;SDS011;23796;51.458;7.000;2023-02-23T05:11:36;64.30;;;45.25;;
37973;SDS011;23796;51.458;7.000;2023-02-23T05:14:02;63.05;;;44.38;;
37973;SDS011;23796;51.458;7.000;2023-02-23T05:16:28;60.00;;;43.83;;
37973;SDS011;23796;51.458;7.000;2023-02-23T05:19:01;61.17;;;43.75;;
37973;SDS011;23796;51.458;7.000;2023-02-23T05:21:26;62.08;;;44.65;;
37973;SDS011;23796;51.458;7.000;2023-02-23T05:23:54;62.50;;;44.70;;
37973;SDS011;23796;51.458;7.000;2023-02-23T05:26:22;63.10;;;45.17;;
37973;SDS011;23796;51.458;7.000;2023-02-23T05:28:50;63.00;;;44.50;;
37973;SDS011;23796;51.458;7.000;2023-02-23T05:31:16;60.78;;;44.53;;
37973;SDS011;23796;51.458;7.000;2023-02-23T05:33:41;63.65;;;43.35;;
37973;SDS011;23796;51.458;7.000;2023-02-23T05:36:11;64.82;;;43.85;;
37973;SDS011;23796;51.458;7.000;2023-02-23T05:38:42;63.78;;;44.20;;
37973;SDS011;23796;51.458;7.000;2023-02-23T05:41:09;65.30;;;44.58;;
37973;SDS011;23796;51.458;7.000;2023-02-23T05:43:44;62.97;;;45.92;;
37973;SDS011;23796;51.458;7.000;2023-02-23T05:48:43;58.05;;;42.35;;
37973;SDS011;23796;51.458;7.000;2023-02-23T05:51:10;64.18;;;44.63;;
37973;SDS011;23796;51.458;7.000;2023-02-23T05:53:38;57.63;;;42.47;;
37973;SDS011;23796;51.458;7.000;2023-02-23T05:56:05;57.13;;;41.85;;
37973;SDS011;23796;51.458;7.000;2023-02-23T05:58:34;61.83;;;43.85;;
37973;SDS011;23796;51.458;7.000;2023-02-23T06:00:59;61.97;;;43.38;;
37973;SDS011;23796;51.458;7.000;2023-02-23T06:03:25;57.58;;;41.35;;
37973;SDS011;23796;51.458;7.000;2023-02-23T06:05:54;56.88;;;42.42;;
37973;SDS011;23796;51.458;7.000;2023-02-23T06:08:24;55.28;;;41.55;;
37973;SDS011;23796;51.458;7.000;2023-02-23T06:10:50;56.88;;;41.47;;
37973;SDS011;23796;51.458;7.000;2023-02-23T06:13:16;58.85;;;43.13;;
37973;SDS011;23796;51.458;7.000;2023-02-23T06:15:46;58.10;;;43.38;;
37973;SDS011;23796;51.458;7.000;2023-02-23T06:18:13;63.00;;;44.17;;
37973;SDS011;23796;51.458;7.000;2023-02-23T06:20:41;65.07;;;44.88;;
37973;SDS011;23796;51.458;7.000;2023-02-23T06:23:07;63.42;;;45.42;;
37973;SDS011;23796;51.458;7.000;2023-02-23T06:25:33;60.58;;;42.75;;
37973;SDS011;23796;51.458;7.000;2023-02-23T06:27:59;63.42;;;43.72;;
37973;SDS011;23796;51.458;7.000;2023-02-23T06:30:26;64.05;;;44.95;;
37973;SDS011;23796;51.458;7.000;2023-02-23T06:32:57;62.72;;;44.58;;
37973;SDS011;23796;51.458;7.000;2023-02-23T06:35:24;60.05;;;43.45;;
37973;SDS011;23796;51.458;7.000;2023-02-23T06:37:52;59.88;;;43.20;;
37973;SDS011;23796;51.458;7.000;2023-02-23T06:40:23;54.45;;;41.72;;
37973;SDS011;23796;51.458;7.000;2023-02-23T06:42:49;55.63;;;42.75;;
37973;SDS011;23796;51.458;7.000;2023-02-23T06:45:15;55.08;;;40.72;;
37973;SDS011;23796;51.458;7.000;2023-02-23T06:47:43;58.78;;;43.70;;
37973;SDS011;23796;51.458;7.000;2023-02-23T06:50:09;59.88;;;42.65;;
37973;SDS011;23796;51.458;7.000;2023-02-23T06:52:37;57.67;;;42.72;;
37973;SDS011;23796;51.458;7.000;2023-02-23T06:55:03;62.33;;;43.55;;
37973;SDS011;23796;51.458;7.000;2023-02-23T06:57:30;60.38;;;44.00;;
37973;SDS011;23796;51.458;7.000;2023-02-23T06:59:56;68.35;;;46.90;;
37973;SDS011;23796;51.458;7.000;2023-02-23T07:02:22;60.85;;;44.15;;
37973;SDS011;23796;51.458;7.000;2023-02-23T07:04:50;61.08;;;44.40;;
37973;SDS011;23796;51.458;7.000;2023-02-23T07:07:18;62.80;;;45.30;;
37973;SDS011;23796;51.458;7.000;2023-02-23T07:09:46;58.75;;;44.38;;
37973;SDS011;23796;51.458;7.000;2023-02-23T07:12:16;62.65;;;45.15;;
37973;SDS011;23796;51.458;7.000;2023-02-23T07:14:45;65.78;;;45.90;;
37973;SDS011;23796;51.458;7.000;2023-02-23T07:17:13;67.45;;;46.83;;
37973;SDS011;23796;51.458;7.000;2023-02-23T07:19:41;64.15;;;45.63;;
37973;SDS011;23796;51.458;7.000;2023-02-23T07:22:07;66.07;;;46.53;;
37973;SDS011;23796;51.458;7.000;2023-02-23T07:24:33;57.05;;;44.38;;
37973;SDS011;23796;51.458;7.000;2023-02-23T07:26:58;59.35;;;42.47;;
37973;SDS011;23796;51.458;7.000;2023-02-23T07:29:24;61.15;;;43.05;;
37973;SDS011;23796;51.458;7.000;2023-02-23T07:31:52;61.83;;;44.60;;
37973;SDS011;23796;51.458;7.000;2023-02-23T07:34:22;56.55;;;44.75;;
37973;SDS011;23796;51.458;7.000;2023-02-23T07:36:48;62.15;;;43.95;;
37973;SDS011;23796;51.458;7.000;2023-02-23T07:39:16;60.45;;;43.22;;
37973;SDS011;23796;51.458;7.000;2023-02-23T07:41:42;63.28;;;44.92;;
37973;SDS011;23796;51.458;7.000;2023-02-23T07:44:07;49.17;;;37.38;;
37973;SDS011;23796;51.458;7.000;2023-02-23T07:46:33;52.72;;;39.60;;
37973;SDS011;23796;51.458;7.000;2023-02-23T07:48:59;50.72;;;38.85;;
37973;SDS011;23796;51.458;7.000;2023-02-23T07:51:24;56.42;;;40.38;;
37973;SDS011;23796;51.458;7.000;2023-02-23T07:53:50;53.58;;;37.97;;
37973;SDS011;23796;51.458;7.000;2023-02-23T07:56:16;57.78;;;39.65;;
37973;SDS011;23796;51.458;7.000;2023-02-23T07:58:42;57.90;;;40.42;;
37973;SDS011;23796;51.458;7.000;2023-02-23T08:01:08;49.95;;;37.80;;
37973;SDS011;23796;51.458;7.000;2023-02-23T08:03:35;55.20;;;38.78;;
37973;SDS011;23796;51.458;7.000;2023-02-23T08:06:03;48.72;;;36.65;;
37973;SDS011;23796;51.458;7.000;2023-02-23T08:08:29;49.60;;;37.00;;
37973;SDS011;23796;51.458;7.000;2023-02-23T08:10:59;52.13;;;38.30;;
37973;SDS011;23796;51.458;7.000;2023-02-23T08:13:26;54.13;;;38.22;;
37973;SDS011;23796;51.458;7.000;2023-02-23T08:15:55;56.45;;;38.58;;
37973;SDS011;23796;51.458;7.000;2023-02-23T08:18:21;54.15;;;37.88;;
37973;SDS011;23796;51.458;7.000;2023-02-23T08:20:48;53.92;;;37.78;;
37973;SDS011;23796;51.458;7.000;2023-02-23T08:23:13;53.35;;;37.38;;
37973;SDS011;23796;51.458;7.000;2023-02-23T08:25:42;47.00;;;34.22;;
37973;SDS011;23796;51.458;7.000;2023-02-23T08:28:10;50.55;;;34.67;;
37973;SDS011;23796;51.458;7.000;2023-02-23T08:30:36;48.13;;;33.70;;
37973;SDS011;23796;51.458;7.000;2023-02-23T08:33:04;46.15;;;32.30;;
37973;SDS011;23796;51.458;7.000;2023-02-23T08:35:30;47.08;;;32.53;;
37973;SDS011;23796;51.458;7.000;2023-02-23T08:37:56;48.92;;;33.42;;
37973;SDS011;23796;51.458;7.000;2023-02-23T08:40:21;47.35;;;32.88;;
37973;SDS011;23796;51.458;7.000;2023-02-23T08:42:47;44.75;;;30.58;;
37973;SDS011;23796;51.458;7.000;2023-02-23T08:45:18;47.35;;;33.58;;
37973;SDS011;23796;51.458;7.000;2023-02-23T08:47:46;43.83;;;32.22;;
37973;SDS011;23796;51.458;7.000;2023-02-23T08:50:12;48.28;;;31.42;;
37973;SDS011;23796;51.458;7.000;2023-02-23T08:52:38;49.85;;;31.42;;
37973;SDS011;23796;51.458;7.000;2023-02-23T08:55:06;45.28;;;30.58;;
37973;SDS011;23796;51.458;7.000;2023-02-23T08:57:35;43.00;;;31.40;;
37973;SDS011;23796;51.458;7.000;2023-02-23T09:00:02;46.58;;;33.42;;
37973;SDS011;23796;51.458;7.000;2023-02-23T09:02:37;44.38;;;32.15;;
37973;SDS011;23796;51.458;7.000;2023-02-23T09:05:05;43.95;;;31.02;;
37973;SDS011;23796;51.458;7.000;2023-02-23T09:07:31;42.60;;;30.58;;
37973;SDS011;23796;51.458;7.000;2023-02-23T09:09:57;39.60;;;30.05;;
37973;SDS011;23796;51.458;7.000;2023-02-23T09:12:23;40.88;;;29.98;;
37973;SDS011;23796;51.458;7.000;2023-02-23T09:14:51;42.33;;;29.85;;
37973;SDS011;23796;51.458;7.000;2023-02-23T09:17:18;36.25;;;26.65;;
37973;SDS011;23796;51.458;7.000;2023-02-23T09:19:44;35.22;;;27.00;;
37973;SDS011;23796;51.458;7.000;2023-02-23T09:22:10;35.47;;;27.85;;
37973;SDS011;23796;51.458;7.000;2023-02-23T09:24:36;33.17;;;25.70;;
37973;SDS011;23796;51.458;7.000;2023-02-23T09:27:02;35.33;;;26.00;;
37973;SDS011;23796;51.458;7.000;2023-02-23T09:29:32;35.17;;;26.80;;
37973;SDS011;23796;51.458;7.000;2023-02-23T09:31:58;36.97;;;27.48;;
37973;SDS011;23796;51.458;7.000;2023-02-23T09:34:24;31.73;;;24.90;;
37973;SDS011;23796;51.458;7.000;2023-02-23T09:36:50;30.58;;;24.58;;
37973;SDS011;23796;51.458;7.000;2023-02-23T09:39:16;35.33;;;24.55;;
37973;SDS011;23796;51.458;7.000;2023-02-23T09:49:52;24.48;;;20.30;;
37973;SDS011;23796;51.458;7.000;2023-02-23T09:55:20;24.35;;;20.33;;
37973;SDS011;23796;51.458;7.000;2023-02-23T09:57:52;25.38;;;19.58;;
37973;SDS011;23796;51.458;7.000;2023-02-23T10:00:24;25.88;;;20.23;;
37973;SDS011;23796;51.458;7.000;2023-02-23T10:05:25;25.92;;;20.80;;
37973;SDS011;23796;51.458;7.000;2023-02-23T10:07:58;25.35;;;19.65;;
37973;SDS011;23796;51.458;7.000;2023-02-23T10:18:49;25.42;;;18.65;;
37973;SDS011;23796;51.458;7.000;2023-02-23T10:23:55;25.50;;;20.50;;
37973;SDS011;23796;51.458;7.000;2023-02-23T10:26:30;26.58;;;20.23;;
37973;SDS011;23796;51.458;7.000;2023-02-23T10:29:03;27.75;;;21.92;;
37973;SDS011;23796;51.458;7.000;2023-02-23T10:31:43;29.15;;;22.50;;
37973;SDS011;23796;51.458;7.000;2023-02-23T10:34:14;31.80;;;22.17;;
37973;SDS011;23796;51.458;7.000;2023-02-23T10:36:42;30.00;;;23.05;;
37973;SDS011;23796;51.458;7.000;2023-02-23T10:39:13;29.45;;;21.42;;
37973;SDS011;23796;51.458;7.000;2023-02-23T10:41:38;28.60;;;20.98;;
37973;SDS011;23796;51.458;7.000;2023-02-23T10:44:09;28.55;;;20.58;;
37973;SDS011;23796;51.458;7.000;2023-02-23T10:46:42;27.67;;;20.08;;
37973;SDS011;23796;51.458;7.000;2023-02-23T10:49:13;28.73;;;21.17;;
37973;SDS011;23796;51.458;7.000;2023-02-23T10:51:46;29.08;;;20.98;;
37973;SDS011;23796;51.458;7.000;2023-02-23T10:57:10;30.92;;;23.20;;
37973;SDS011;23796;51.458;7.000;2023-02-23T10:59:57;31.02;;;22.92;;
37973;SDS011;23796;51.458;7.000;2023-02-23T11:02:32;28.55;;;21.85;;
37973;SDS011;23796;51.458;7.000;2023-02-23T11:05:00;29.67;;;21.38;;
37973;SDS011;23796;51.458;7.000;2023-02-23T11:07:27;29.60;;;21.63;;
37973;SDS011;23796;51.458;7.000;2023-02-23T11:09:58;29.85;;;21.27;;
37973;SDS011;23796;51.458;7.000;2023-02-23T11:12:42;32.47;;;22.02;;
37973;SDS011;23796;51.458;7.000;2023-02-23T11:17:59;29.52;;;21.35;;
37973;SDS011;23796;51.458;7.000;2023-02-23T11:20:33;28.50;;;21.55;;
37973;SDS011;23796;51.458;7.000;2023-02-23T11:23:09;31.95;;;20.40;;
37973;SDS011;23796;51.458;7.000;2023-02-23T11:25:35;29.48;;;20.65;;
37973;SDS011;23796;51.458;7.000;2023-02-23T11:28:01;28.95;;;20.27;;
37973;SDS011;23796;51.458;7.000;2023-02-23T11:30:30;29.15;;;22.02;;
37973;SDS011;23796;51.458;7.000;2023-02-23T11:33:01;28.50;;;21.52;;
37973;SDS011;23796;51.458;7.000;2023-02-23T11:35:34;26.65;;;19.83;;
37973;SDS011;23796;51.458;7.000;2023-02-23T11:38:13;27.50;;;21.10;;
37973;SDS011;23796;51.458;7.000;2023-02-23T11:40:56;28.70;;;21.88;;
37973;SDS011;23796;51.458;7.000;2023-02-23T11:43:27;30.48;;;23.08;;
37973;SDS011;23796;51.458;7.000;2023-02-23T11:45:56;30.35;;;22.67;;
37973;SDS011;23796;51.458;7.000;2023-02-23T11:50:52;30.52;;;21.08;;
37973;SDS011;23796;51.458;7.000;2023-02-23T11:53:29;27.67;;;21.00;;
37973;SDS011;23796;51.458;7.000;2023-02-23T11:56:10;27.58;;;20.27;;
37973;SDS011;23796;51.458;7.000;2023-02-23T11:58:51;26.15;;;19.52;;
37973;SDS011;23796;51.458;7.000;2023-02-23T12:01:20;26.77;;;19.73;;
37973;SDS011;23796;51.458;7.000;2023-02-23T12:04:07;24.00;;;18.85;;
37973;SDS011;23796;51.458;7.000;2023-02-23T12:06:36;27.13;;;18.75;;
37973;SDS011;23796;51.458;7.000;2023-02-23T12:11:39;24.75;;;18.63;;
37973;SDS011;23796;51.458;7.000;2023-02-23T12:17:22;22.15;;;17.75;;
37973;SDS011;23796;51.458;7.000;2023-02-23T12:19:54;24.73;;;18.38;;
37973;SDS011;23796;51.458;7.000;2023-02-23T12:22:25;25.55;;;18.75;;
37973;SDS011;23796;51.458;7.000;2023-02-23T12:27:50;26.52;;;18.40;;
37973;SDS011;23796;51.458;7.000;2023-02-23T12:33:14;23.38;;;18.05;;
37973;SDS011;23796;51.458;7.000;2023-02-23T12:39:05;24.27;;;18.30;;
37973;SDS011;23796;51.458;7.000;2023-02-23T12:41:50;24.20;;;17.95;;
37973;SDS011;23796;51.458;7.000;2023-02-23T12:44:49;23.58;;;18.63;;
37973;SDS011;23796;51.458;7.000;2023-02-23T12:47:35;22.10;;;17.00;;
37973;SDS011;23796;51.458;7.000;2023-02-23T12:50:05;24.05;;;17.70;;
37973;SDS011;23796;51.458;7.000;2023-02-23T12:52:42;24.30;;;18.42;;
37973;SDS011;23796;51.458;7.000;2023-02-23T12:55:40;21.98;;;16.42;;
37973;SDS011;23796;51.458;7.000;2023-02-23T13:03:44;25.52;;;18.25;;
37973;SDS011;23796;51.458;7.000;2023-02-23T13:12:42;24.00;;;18.00;;
37973;SDS011;23796;51.458;7.000;2023-02-23T13:15:44;21.35;;;17.75;;
37973;SDS011;23796;51.458;7.000;2023-02-23T13:18:37;21.98;;;18.20;;
37973;SDS011;23796;51.458;7.000;2023-02-23T13:21:22;23.00;;;18.58;;
37973;SDS011;23796;51.458;7.000;2023-02-23T13:27:04;21.10;;;16.85;;
37973;SDS011;23796;51.458;7.000;2023-02-23T13:29:48;20.98;;;15.85;;
37973;SDS011;23796;51.458;7.000;2023-02-23T13:32:23;20.95;;;16.33;;
37973;SDS011;23796;51.458;7.000;2023-02-23T13:37:45;20.80;;;15.25;;
37973;SDS011;23796;51.458;7.000;2023-02-23T13:48:52;17.60;;;13.93;;
37973;SDS011;23796;51.458;7.000;2023-02-23T14:01:48;16.65;;;13.82;;
37973;SDS011;23796;51.458;7.000;2023-02-23T14:06:54;18.58;;;13.10;;
37973;SDS011;23796;51.458;7.000;2023-02-23T14:09:53;15.70;;;11.63;;
37973;SDS011;23796;51.458;7.000;2023-02-23T14:12:24;15.00;;;12.05;;
37973;SDS011;23796;51.458;7.000;2023-02-23T14:14:56;16.17;;;11.68;;
37973;SDS011;23796;51.458;7.000;2023-02-23T14:31:33;16.33;;;11.95;;
37973;SDS011;23796;51.458;7.000;2023-02-23T14:34:05;15.50;;;11.30;;
37973;SDS011;23796;51.458;7.000;2023-02-23T14:36:40;15.60;;;11.98;;
37973;SDS011;23796;51.458;7.000;2023-02-23T14:39:09;16.17;;;11.65;;
37973;SDS011;23796;51.458;7.000;2023-02-23T14:41:46;17.65;;;12.35;;
37973;SDS011;23796;51.458;7.000;2023-02-23T14:49:47;17.15;;;13.68;;
37973;SDS011;23796;51.458;7.000;2023-02-23T14:54:52;17.48;;;13.13;;
37973;SDS011;23796;51.458;7.000;2023-02-23T14:57:34;17.10;;;13.07;;
37973;SDS011;23796;51.458;7.000;2023-02-23T15:00:01;18.58;;;12.85;;
37973;SDS011;23796;51.458;7.000;2023-02-23T15:05:28;20.02;;;14.07;;
37973;SDS011;23796;51.458;7.000;2023-02-23T15:08:15;20.10;;;14.27;;
37973;SDS011;23796;51.458;7.000;2023-02-23T15:10:46;18.85;;;12.68;;
37973;SDS011;23796;51.458;7.000;2023-02-23T15:16:04;17.98;;;13.23;;
37973;SDS011;23796;51.458;7.000;2023-02-23T15:18:34;19.60;;;13.90;;
37973;SDS011;23796;51.458;7.000;2023-02-23T15:21:06;18.35;;;14.43;;
37973;SDS011;23796;51.458;7.000;2023-02-23T15:23:35;18.83;;;13.63;;
37973;SDS011;23796;51.458;7.000;2023-02-23T15:26:14;18.35;;;15.18;;
37973;SDS011;23796;51.458;7.000;2023-02-23T15:29:15;20.10;;;14.40;;
37973;SDS011;23796;51.458;7.000;2023-02-23T15:31:48;17.92;;;14.82;;
37973;SDS011;23796;51.458;7.000;2023-02-23T15:34:20;20.67;;;14.55;;
37973;SDS011;23796;51.458;7.000;2023-02-23T15:37:03;19.20;;;15.10;;
37973;SDS011;23796;51.458;7.000;2023-02-23T15:42:06;19.75;;;15.05;;
37973;SDS011;23796;51.458;7.000;2023-02-23T15:44:37;21.60;;;15.43;;
37973;SDS011;23796;51.458;7.000;2023-02-23T15:47:04;20.30;;;16.05;;
37973;SDS011;23796;51.458;7.000;2023-02-23T15:49:40;19.00;;;15.68;;
37973;SDS011;23796;51.458;7.000;2023-02-23T15:52:07;20.45;;;16.17;;
37973;SDS011;23796;51.458;7.000;2023-02-23T15:54:44;24.55;;;16.42;;
37973;SDS011;23796;51.458;7.000;2023-02-23T15:57:19;19.27;;;15.23;;
37973;SDS011;23796;51.458;7.000;2023-02-23T15:59:50;20.45;;;16.25;;
37973;SDS011;23796;51.458;7.000;2023-02-23T16:02:18;22.20;;;16.25;;
37973;SDS011;23796;51.458;7.000;2023-02-23T16:04:49;20.38;;;16.13;;
37973;SDS011;23796;51.458;7.000;2023-02-23T16:07:22;23.02;;;17.90;;
37973;SDS011;23796;51.458;7.000;2023-02-23T16:12:20;22.38;;;16.67;;
37973;SDS011;23796;51.458;7.000;2023-02-23T16:15:00;21.95;;;16.88;;
37973;SDS011;23796;51.458;7.000;2023-02-23T16:17:33;22.95;;;17.30;;
37973;SDS011;23796;51.458;7.000;2023-02-23T16:20:25;24.10;;;18.20;;
37973;SDS011;23796;51.458;7.000;2023-02-23T16:23:13;26.48;;;18.90;;
37973;SDS011;23796;51.458;7.000;2023-02-23T16:25:53;24.42;;;18.75;;
37973;SDS011;23796;51.458;7.000;2023-02-23T16:28:29;24.67;;;18.65;;
37973;SDS011;23796;51.458;7.000;2023-02-23T16:30:58;25.38;;;17.63;;
37973;SDS011;23796;51.458;7.000;2023-02-23T16:38:37;19.42;;;13.07;;
37973;SDS011;23796;51.458;7.000;2023-02-23T16:41:29;22.40;;;13.85;;
37973;SDS011;23796;51.458;7.000;2023-02-23T16:43:56;19.42;;;12.27;;
37973;SDS011;23796;51.458;7.000;2023-02-23T16:46:31;17.63;;;11.60;;
37973;SDS011;23796;51.458;7.000;2023-02-23T16:49:17;18.25;;;13.07;;
37973;SDS011;23796;51.458;7.000;2023-02-23T16:51:47;16.85;;;11.30;;
37973;SDS011;23796;51.458;7.000;2023-02-23T16:54:15;20.30;;;12.32;;
37973;SDS011;23796;51.458;7.000;2023-02-23T16:56:41;18.58;;;12.48;;
37973;SDS011;23796;51.458;7.000;2023-02-23T16:59:08;18.17;;;11.30;;
37973;SDS011;23796;51.458;7.000;2023-02-23T17:01:39;19.02;;;12.00;;
37973;SDS011;23796;51.458;7.000;2023-02-23T17:04:11;20.83;;;13.45;;
37973;SDS011;23796;51.458;7.000;2023-02-23T17:06:39;17.77;;;12.50;;
37973;SDS011;23796;51.458;7.000;2023-02-23T17:09:07;18.85;;;12.65;;
37973;SDS011;23796;51.458;7.000;2023-02-23T17:11:36;22.58;;;12.27;;
37973;SDS011;23796;51.458;7.000;2023-02-23T17:14:01;18.60;;;11.43;;
37973;SDS011;23796;51.458;7.000;2023-02-23T17:16:27;18.35;;;11.63;;
37973;SDS011;23796;51.458;7.000;2023-02-23T17:18:55;22.33;;;12.40;;
37973;SDS011;23796;51.458;7.000;2023-02-23T17:21:23;17.25;;;12.10;;
37973;SDS011;23796;51.458;7.000;2023-02-23T17:23:51;18.23;;;11.75;;
37973;SDS011;23796;51.458;7.000;2023-02-23T17:26:26;17.83;;;10.90;;
37973;SDS011;23796;51.458;7.000;2023-02-23T17:28:51;18.88;;;11.35;;
37973;SDS011;23796;51.458;7.000;2023-02-23T17:31:20;21.98;;;12.57;;
37973;SDS011;23796;51.458;7.000;2023-02-23T17:33:48;18.65;;;11.90;;
37973;SDS011;23796;51.458;7.000;2023-02-23T17:36:14;19.65;;;12.50;;
37973;SDS011;23796;51.458;7.000;2023-02-23T17:38:41;18.95;;;12.10;;
37973;SDS011;23796;51.458;7.000;2023-02-23T17:41:14;17.98;;;11.25;;
37973;SDS011;23796;51.458;7.000;2023-02-23T17:46:16;18.20;;;10.68;;